Time;durP1;ratioP1;P1;durP2;ratioP2;P2;SDS_P1;SDS_P2;PMS_P1;PMS_P2;Temp;Humidity;BMP_temperature;BMP_pressure;BME280_temperature;BME280_humidity;BME280_pressure;Samples;Min_cycle;Max_cycle;Signal;HPM_P1;HPM_P2
2021/07/12 00:04:18;;;;;;;4.07;3.77;;;18.40;99.90;;;;;;10397401;28;20218;-81
2021/07/12 00:09:20;;;;;;;3.27;2.97;;;18.40;99.90;;;;;;10397055;28;20241;-81
2021/07/12 00:14:23;;;;;;;3.70;3.40;;;18.30;99.90;;;;;;10379944;28;20218;-81
2021/07/12 00:19:25;;;;;;;2.83;2.60;;;18.20;99.90;;;;;;10396258;28;20206;-81
2021/07/12 00:24:28;;;;;;;3.50;3.20;;;18.20;99.90;;;;;;10391644;28;20222;-81
2021/07/12 00:29:31;;;;;;;4.20;3.40;;;18.20;99.90;;;;;;10385654;28;20213;-81
2021/07/12 00:34:33;;;;;;;3.60;3.40;;;18.10;99.90;;;;;;10425988;28;20244;-81
2021/07/12 00:39:35;;;;;;;5.83;3.00;;;18.10;99.90;;;;;;10421357;28;20230;-81
2021/07/12 00:44:39;;;;;;;3.60;3.40;;;18.10;99.90;;;;;;10367558;28;20230;-81
2021/07/12 00:49:41;;;;;;;3.57;3.13;;;18.00;99.90;;;;;;10347384;28;20281;-80
2021/07/12 00:54:44;;;;;;;3.70;3.50;;;18.00;99.90;;;;;;10364011;28;20729;-81
2021/07/12 00:59:48;;;;;;;3.70;3.40;;;18.00;99.90;;;;;;10361060;28;20206;-81
2021/07/12 01:04:51;;;;;;;3.57;3.37;;;17.90;99.90;;;;;;10360039;28;20226;-80
2021/07/12 01:09:55;;;;;;;4.03;3.40;;;17.90;99.90;;;;;;10380616;28;20203;-81
2021/07/12 01:15:06;;;;;;;3.33;3.13;;;17.90;99.90;;;;;;10381493;28;20211;-80
2021/07/12 01:21:24;;;;;;;3.70;3.40;;;17.80;99.90;;;;;;10369269;28;20216;-81
2021/07/12 01:27:06;;;;;;;3.60;3.30;;;17.80;99.90;;;;;;10326904;28;20261;-81
2021/07/12 01:32:41;;;;;;;4.10;3.80;;;17.80;99.90;;;;;;10362936;28;20257;-81
2021/07/12 01:37:52;;;;;;;3.90;3.60;;;17.70;99.90;;;;;;10355238;28;20357;-81
2021/07/12 01:43:03;;;;;;;4.83;3.90;;;17.60;99.90;;;;;;10363850;28;20294;-81
2021/07/12 01:48:12;;;;;;;3.90;3.70;;;17.60;99.90;;;;;;10345366;28;20700;-81
2021/07/12 01:53:28;;;;;;;3.90;3.50;;;17.60;99.90;;;;;;10363378;28;20245;-80
2021/07/12 01:58:37;;;;;;;4.20;4.00;;;17.60;99.90;;;;;;10362914;28;20231;-81
2021/07/12 02:03:44;;;;;;;3.70;3.40;;;17.50;99.90;;;;;;10365813;28;20574;-81
2021/07/12 02:08:53;;;;;;;5.10;3.63;;;17.50;99.90;;;;;;10364926;28;20229;-81
2021/07/12 02:14:05;;;;;;;3.83;3.63;;;17.60;99.90;;;;;;10340608;28;20693;-81
2021/07/12 02:19:11;;;;;;;3.40;3.20;;;17.60;99.90;;;;;;10351565;28;20202;-81
2021/07/12 02:24:26;;;;;;;3.97;3.57;;;17.60;99.90;;;;;;10363106;28;20218;-81
2021/07/12 02:29:31;;;;;;;6.00;4.30;;;17.50;99.90;;;;;;10364365;28;20194;-80
2021/07/12 02:34:35;;;;;;;4.40;4.10;;;17.50;99.90;;;;;;10377792;28;20750;-81
2021/07/12 02:39:39;;;;;;;2.37;2.27;;;17.50;99.90;;;;;;10342435;28;20274;-81
2021/07/12 02:44:47;;;;;;;3.50;2.83;;;17.50;99.90;;;;;;10343324;28;20222;-81
2021/07/12 02:49:52;;;;;;;3.67;3.40;;;17.40;99.90;;;;;;10365772;28;20205;-81
2021/07/12 02:54:58;;;;;;;3.07;2.87;;;17.40;99.90;;;;;;10376590;28;20350;-81
2021/07/12 03:00:00;;;;;;;3.40;3.13;;;17.30;99.90;;;;;;10377128;28;20290;-80
2021/07/12 03:05:10;;;;;;;3.30;3.03;;;17.30;99.90;;;;;;10343190;28;20325;-81
2021/07/12 03:10:18;;;;;;;7.37;3.10;;;17.30;99.90;;;;;;10359635;28;20682;-81
2021/07/12 03:15:29;;;;;;;3.50;3.30;;;17.20;99.90;;;;;;10375207;28;20297;-81
2021/07/12 03:20:35;;;;;;;3.63;3.33;;;17.30;99.90;;;;;;10359439;28;20202;-80
2021/07/12 03:25:39;;;;;;;3.87;3.53;;;17.30;99.90;;;;;;10357204;28;20281;-81
2021/07/12 03:30:44;;;;;;;4.37;4.07;;;17.30;99.90;;;;;;10343088;28;20218;-81
2021/07/12 03:35:49;;;;;;;3.90;3.70;;;17.20;99.90;;;;;;10378027;28;20214;-81
2021/07/12 03:40:53;;;;;;;3.37;3.17;;;17.20;99.90;;;;;;10343448;28;20257;-81
2021/07/12 03:46:00;;;;;;;2.90;2.70;;;17.20;99.90;;;;;;10360154;28;20758;-81
2021/07/12 03:51:15;;;;;;;3.40;3.10;;;17.20;99.90;;;;;;10348837;28;20225;-81
2021/07/12 03:56:21;;;;;;;3.50;3.30;;;17.20;99.90;;;;;;10377501;28;20234;-81
2021/07/12 04:01:23;;;;;;;3.77;3.47;;;17.20;99.90;;;;;;10369159;28;20229;-81
2021/07/12 04:06:29;;;;;;;3.53;3.20;;;17.30;99.90;;;;;;10354076;28;20284;-81
2021/07/12 04:11:33;;;;;;;3.77;3.53;;;17.30;99.90;;;;;;10375024;28;20229;-81
2021/07/12 04:16:35;;;;;;;4.10;3.80;;;17.30;99.90;;;;;;10373692;28;20221;-81
2021/07/12 04:21:39;;;;;;;3.17;2.93;;;17.30;99.90;;;;;;10376065;28;20194;-81
2021/07/12 04:26:41;;;;;;;3.50;3.30;;;17.30;99.90;;;;;;10390558;28;20234;-81
2021/07/12 04:31:43;;;;;;;3.73;3.50;;;17.30;99.90;;;;;;10373744;28;20260;-81
2021/07/12 04:36:46;;;;;;;3.60;3.40;;;17.30;99.90;;;;;;10375560;28;20294;-81
2021/07/12 04:41:50;;;;;;;4.03;3.73;;;17.30;99.90;;;;;;10402517;28;20237;-81
2021/07/12 04:46:53;;;;;;;4.27;3.97;;;17.30;99.90;;;;;;10366046;28;20317;-82
2021/07/12 04:51:58;;;;;;;4.50;3.77;;;17.30;99.90;;;;;;10405298;28;20684;-82
2021/07/12 04:57:00;;;;;;;4.70;4.30;;;17.40;99.90;;;;;;10411141;28;20214;-81
2021/07/12 05:02:02;;;;;;;4.07;3.83;;;17.40;99.90;;;;;;10426310;28;20194;-81
2021/07/12 05:07:06;;;;;;;3.90;3.60;;;17.50;99.90;;;;;;10427932;28;20225;-82
2021/07/12 05:12:13;;;;;;;4.17;3.77;;;17.50;99.90;;;;;;10372344;28;20210;-81
2021/07/12 05:17:15;;;;;;;4.13;3.83;;;17.60;99.90;;;;;;10349157;28;20218;-82
2021/07/12 05:22:22;;;;;;;4.40;4.10;;;17.70;99.90;;;;;;10345332;28;20265;-81
2021/07/12 05:27:24;;;;;;;4.93;4.63;;;17.80;99.90;;;;;;10365983;28;20222;-82
2021/07/12 05:32:26;;;;;;;4.80;4.50;;;17.80;99.90;;;;;;10374586;28;20217;-82
2021/07/12 05:37:29;;;;;;;5.07;4.67;;;17.90;99.90;;;;;;10392196;28;20236;-82
2021/07/12 05:42:32;;;;;;;12.90;11.47;;;17.90;99.90;;;;;;10395495;28;20226;-80
2021/07/12 05:47:34;;;;;;;4.23;3.93;;;17.90;99.90;;;;;;10347642;28;20234;-80
2021/07/12 05:52:37;;;;;;;4.47;3.70;;;17.90;99.90;;;;;;10366513;28;20584;-81
2021/07/12 05:57:40;;;;;;;4.10;3.70;;;18.00;99.90;;;;;;10404694;22;20263;-82
2021/07/12 06:02:42;;;;;;;4.30;4.00;;;18.10;99.90;;;;;;10362488;28;20355;-84
2021/07/12 06:07:47;;;;;;;4.33;4.03;;;18.20;99.90;;;;;;10380454;28;20720;-83
2021/07/12 06:12:49;;;;;;;4.57;4.20;;;18.30;99.90;;;;;;10381122;28;20257;-83
2021/07/12 06:17:52;;;;;;;4.50;4.20;;;18.50;99.90;;;;;;10399069;28;20226;-83
2021/07/12 06:22:56;;;;;;;3.73;3.53;;;18.70;99.90;;;;;;10365158;28;20206;-83
2021/07/12 06:27:58;;;;;;;4.20;3.90;;;18.90;99.90;;;;;;10379529;28;20221;-82
2021/07/12 06:33:01;;;;;;;4.07;3.60;;;19.00;99.90;;;;;;10381407;28;20625;-83
2021/07/12 06:38:04;;;;;;;3.10;2.90;;;19.30;99.90;;;;;;10401432;28;20664;-83
2021/07/12 06:43:06;;;;;;;2.57;2.47;;;19.70;99.90;;;;;;10364322;28;20210;-82
2021/07/12 06:48:12;;;;;;;2.90;2.70;;;20.00;99.90;;;;;;10392340;28;20612;-83
2021/07/12 06:53:16;;;;;;;2.70;2.60;;;20.30;99.90;;;;;;10364006;28;20219;-85
2021/07/12 06:58:18;;;;;;;2.97;2.70;;;20.60;99.90;;;;;;10372229;28;20218;-85
2021/07/12 07:03:20;;;;;;;3.00;2.80;;;20.90;99.90;;;;;;10356343;28;20199;-84
2021/07/12 07:08:24;;;;;;;3.00;2.90;;;21.20;99.90;;;;;;10388160;28;20232;-84
2021/07/12 07:13:27;;;;;;;2.33;2.13;;;21.50;99.90;;;;;;10357852;28;20236;-83
2021/07/12 07:18:36;;;;;;;2.60;2.43;;;21.80;99.90;;;;;;10373073;28;20725;-84
2021/07/12 07:23:44;;;;;;;2.87;2.67;;;22.00;99.90;;;;;;10372178;28;20202;-85
2021/07/12 07:28:46;;;;;;;4.93;2.30;;;22.30;99.90;;;;;;10388515;28;20250;-83
2021/07/12 07:33:48;;;;;;;4.33;2.57;;;22.50;99.90;;;;;;10381939;28;20206;-84
2021/07/12 07:38:52;;;;;;;2.90;2.70;;;22.60;99.90;;;;;;10397507;28;20234;-82
2021/07/12 07:43:54;;;;;;;2.70;2.50;;;22.80;99.90;;;;;;10407718;28;20195;-82
2021/07/12 07:48:56;;;;;;;2.93;2.63;;;22.90;99.90;;;;;;10386056;28;20325;-83
2021/07/12 07:54:00;;;;;;;2.97;2.77;;;23.00;99.90;;;;;;10432460;28;20201;-82
2021/07/12 07:59:04;;;;;;;3.30;3.10;;;23.20;99.90;;;;;;10447298;28;20247;-82
2021/07/12 08:04:06;;;;;;;2.93;2.73;;;23.40;99.90;;;;;;10436573;28;20197;-83
2021/07/12 08:09:10;;;;;;;2.80;2.60;;;23.80;97.90;;;;;;10429638;28;20294;-83
2021/07/12 08:14:12;;;;;;;2.57;2.47;;;24.30;98.40;;;;;;10420192;28;20589;-82
2021/07/12 08:19:14;;;;;;;5.30;2.67;;;24.90;97.50;;;;;;10406752;28;20266;-84
2021/07/12 08:24:18;;;;;;;2.60;2.43;;;25.50;95.70;;;;;;10405070;28;20202;-83
2021/07/12 08:29:20;;;;;;;2.10;2.00;;;26.10;95.90;;;;;;10403539;28;20220;-84
2021/07/12 08:34:22;;;;;;;2.73;2.40;;;26.70;94.50;;;;;;10387647;28;20233;-84
2021/07/12 08:39:26;;;;;;;4.50;2.10;;;27.10;93.40;;;;;;10421051;28;20197;-86
2021/07/12 08:44:29;;;;;;;2.63;2.53;;;27.50;93.50;;;;;;10402715;28;20217;-84
2021/07/12 08:49:33;;;;;;;2.37;2.20;;;28.00;91.40;;;;;;10402234;28;20309;-84
2021/07/12 08:54:39;;;;;;;2.47;2.37;;;28.50;90.80;;;;;;10382577;28;20229;-84
2021/07/12 08:59:42;;;;;;;2.13;2.03;;;28.80;88.70;;;;;;10400953;28;20197;-84
2021/07/12 09:04:52;;;;;;;2.80;2.23;;;28.90;87.60;;;;;;10388284;28;20661;-84
2021/07/12 09:09:58;;;;;;;3.53;2.33;;;29.10;85.00;;;;;;10400918;28;20308;-83
2021/07/12 09:15:02;;;;;;;2.33;2.23;;;29.20;84.60;;;;;;10397821;28;20214;-84
2021/07/12 09:20:09;;;;;;;2.37;2.27;;;29.60;84.10;;;;;;10401489;28;20198;-84
2021/07/12 09:25:13;;;;;;;3.97;1.50;;;29.80;79.50;;;;;;10398148;28;20226;-83
2021/07/12 09:30:18;;;;;;;2.40;2.30;;;30.10;77.80;;;;;;10384343;28;20214;-84
2021/07/12 09:35:22;;;;;;;2.43;2.30;;;30.30;79.10;;;;;;10416806;28;20230;-84
2021/07/12 09:40:28;;;;;;;2.20;2.10;;;30.60;80.70;;;;;;10382237;28;20198;-84
2021/07/12 09:45:41;;;;;;;4.43;2.00;;;31.10;78.40;;;;;;10397256;28;20268;-85
2021/07/12 09:50:48;;;;;;;2.30;2.20;;;31.50;75.40;;;;;;10397542;28;20244;-84
2021/07/12 09:55:55;;;;;;;2.40;2.30;;;32.10;71.70;;;;;;10381244;28;20260;-84
2021/07/12 10:01:00;;;;;;;2.50;2.40;;;32.70;70.90;;;;;;10394656;28;20263;-83
2021/07/12 10:06:04;;;;;;;2.23;2.13;;;33.90;67.20;;;;;;10402397;28;20248;-85
2021/07/12 10:11:09;;;;;;;1.80;1.70;;;34.50;63.80;;;;;;10381673;28;20232;-84
2021/07/12 10:16:18;;;;;;;2.40;2.30;;;35.20;60.90;;;;;;10384039;28;20210;-85
2021/07/12 10:21:20;;;;;;;1.77;1.67;;;36.10;58.40;;;;;;10382562;28;20201;-84
2021/07/12 10:27:04;;;;;;;2.17;2.07;;;36.40;56.90;;;;;;10396603;28;20255;-84
2021/07/12 10:32:14;;;;;;;1.93;1.83;;;35.60;57.60;;;;;;10367172;28;20233;-84
2021/07/12 10:37:24;;;;;;;2.50;2.40;;;33.80;58.90;;;;;;10392786;28;20757;-84
2021/07/12 10:42:58;;;;;;;2.60;2.50;;;32.60;61.60;;;;;;10397615;28;20202;-84
2021/07/12 10:48:13;;;;;;;2.37;2.27;;;31.40;62.80;;;;;;10345332;28;20594;-84
2021/07/12 10:53:59;;;;;;;2.43;2.33;;;30.50;64.20;;;;;;10398516;28;20294;-85
2021/07/12 10:59:01;;;;;;;2.80;2.60;;;29.90;63.80;;;;;;10399039;28;20607;-85
2021/07/12 11:04:40;;;;;;;2.43;2.33;;;29.50;67.80;;;;;;10382276;28;20202;-83
2021/07/12 11:09:51;;;;;;;2.40;2.30;;;29.20;65.10;;;;;;10414790;28;20299;-83
2021/07/12 11:15:07;;;;;;;2.30;2.20;;;28.90;65.90;;;;;;10414405;28;20218;-83
2021/07/12 11:20:14;;;;;;;2.50;2.40;;;28.70;72.90;;;;;;10397796;28;20623;-84
2021/07/12 11:25:18;;;;;;;2.53;2.33;;;28.60;72.50;;;;;;10411697;28;20305;-83
2021/07/12 11:30:27;;;;;;;2.60;1.57;;;28.60;71.10;;;;;;10378895;28;20341;-83
2021/07/12 11:35:31;;;;;;;2.77;2.57;;;28.50;71.40;;;;;;10410766;28;20225;-83
2021/07/12 11:40:33;;;;;;;2.43;2.30;;;28.30;66.70;;;;;;10386327;28;20206;-85
2021/07/12 11:45:35;;;;;;;2.50;2.40;;;28.10;67.90;;;;;;10385951;28;20603;-84
2021/07/12 11:50:39;;;;;;;2.37;2.27;;;27.80;68.50;;;;;;10441996;28;20209;-84
2021/07/12 11:55:41;;;;;;;2.37;2.27;;;27.70;71.30;;;;;;10411890;22;20224;-81
2021/07/12 12:00:43;;;;;;;2.97;2.77;;;27.60;73.30;;;;;;10295990;28;20203;-81
2021/07/12 12:05:47;;;;;;;2.53;2.43;;;27.60;74.80;;;;;;10278344;28;20327;-81
2021/07/12 12:10:54;;;;;;;2.07;1.90;;;27.60;74.10;;;;;;10279312;28;20248;-81
2021/07/12 12:15:56;;;;;;;2.33;2.23;;;27.70;74.90;;;;;;10273335;28;20211;-81
2021/07/12 12:21:03;;;;;;;2.70;2.60;;;27.80;74.30;;;;;;10296813;28;20201;-82
2021/07/12 12:26:07;;;;;;;2.73;2.63;;;27.80;75.80;;;;;;10281100;28;20220;-82
2021/07/12 12:31:11;;;;;;;2.50;2.30;;;27.70;73.00;;;;;;10269457;28;20251;-81
2021/07/12 12:36:19;;;;;;;2.50;2.40;;;27.50;73.60;;;;;;10298487;28;20577;-81
2021/07/12 12:41:22;;;;;;;2.30;2.20;;;27.40;72.80;;;;;;10285122;28;20196;-82
2021/07/12 12:46:25;;;;;;;2.57;2.47;;;27.30;73.20;;;;;;10301675;28;20669;-82
2021/07/12 12:51:34;;;;;;;3.33;3.03;;;27.20;76.20;;;;;;10301224;28;20279;-81
2021/07/12 12:56:38;;;;;;;2.03;1.93;;;27.10;74.60;;;;;;10281674;28;20605;-82
2021/07/12 13:01:43;;;;;;;2.60;2.40;;;26.80;79.00;;;;;;10283005;28;20215;-81
2021/07/12 13:06:56;;;;;;;3.40;2.70;;;26.60;74.20;;;;;;10282851;28;20718;-81
2021/07/12 13:12:15;;;;;;;2.40;2.30;;;26.50;74.30;;;;;;10293853;28;20648;-81
2021/07/12 13:17:20;;;;;;;2.70;2.60;;;26.40;74.90;;;;;;10299050;28;20212;-81
2021/07/12 13:22:26;;;;;;;2.40;2.30;;;26.40;74.40;;;;;;10298497;28;20211;-81
2021/07/12 13:27:31;;;;;;;2.90;2.50;;;26.60;76.60;;;;;;10280571;28;20224;-80
2021/07/12 13:32:33;;;;;;;2.90;2.30;;;26.80;78.10;;;;;;10299287;28;20259;-81
2021/07/12 13:37:36;;;;;;;2.10;2.00;;;27.00;78.10;;;;;;10282818;28;20718;-82
2021/07/12 13:42:39;;;;;;;2.63;2.27;;;27.20;80.80;;;;;;10299934;28;20279;-82
2021/07/12 13:47:41;;;;;;;1.87;1.77;;;27.40;75.00;;;;;;10281998;28;20255;-81
2021/07/12 13:52:46;;;;;;;2.60;2.50;;;27.50;75.00;;;;;;10285420;28;20243;-82
2021/07/12 13:57:50;;;;;;;3.07;2.80;;;27.60;77.00;;;;;;10282519;28;20228;-82
2021/07/12 14:02:52;;;;;;;2.20;2.10;;;27.50;75.20;;;;;;10300204;28;20212;-81
2021/07/12 14:07:56;;;;;;;3.03;2.50;;;27.40;77.40;;;;;;10282607;28;20329;-82
2021/07/12 14:12:59;;;;;;;2.60;2.50;;;27.20;78.30;;;;;;10293011;28;20196;-82
2021/07/12 14:18:01;;;;;;;3.30;3.00;;;27.20;77.10;;;;;;10283914;28;20216;-82
2021/07/12 14:23:04;;;;;;;2.43;2.33;;;27.30;78.20;;;;;;10304625;28;20215;-82
2021/07/12 14:28:07;;;;;;;2.97;2.77;;;27.40;76.90;;;;;;10264019;28;20247;-82
2021/07/12 14:33:09;;;;;;;2.60;2.40;;;27.30;79.80;;;;;;10279759;28;20378;-82
2021/07/12 14:38:13;;;;;;;2.53;2.43;;;27.20;82.20;;;;;;10296122;28;20236;-81
2021/07/12 14:43:15;;;;;;;4.10;3.10;;;26.90;83.20;;;;;;10281087;28;20676;-81
2021/07/12 14:48:17;;;;;;;3.30;3.10;;;26.80;83.40;;;;;;10265251;28;20772;-82
2021/07/12 14:53:21;;;;;;;2.90;2.57;;;26.60;81.40;;;;;;10280354;28;20204;-81
2021/07/12 14:58:23;;;;;;;2.87;2.70;;;26.40;82.00;;;;;;10297526;28;20238;-81
2021/07/12 15:03:25;;;;;;;2.87;2.70;;;26.20;82.20;;;;;;10298114;28;20196;-81
2021/07/12 15:08:29;;;;;;;2.80;2.60;;;26.20;87.80;;;;;;10301704;28;20309;-81
2021/07/12 15:13:31;;;;;;;2.50;2.40;;;26.10;86.20;;;;;;10294326;28;20250;-81
2021/07/12 15:18:33;;;;;;;2.97;2.77;;;26.20;82.70;;;;;;10294627;28;20374;-82
2021/07/12 15:23:37;;;;;;;2.97;2.77;;;26.40;83.90;;;;;;10295404;28;20207;-81
2021/07/12 15:28:39;;;;;;;2.77;2.57;;;26.50;82.80;;;;;;10296044;28;20212;-81
2021/07/12 15:33:42;;;;;;;2.80;2.60;;;26.50;86.80;;;;;;10261804;28;20314;-81
2021/07/12 15:38:46;;;;;;;3.07;2.83;;;26.50;88.00;;;;;;10295379;28;20655;-80
2021/07/12 15:43:48;;;;;;;2.93;2.70;;;26.50;86.40;;;;;;10298803;28;20191;-81
2021/07/12 15:48:50;;;;;;;5.43;2.40;;;26.60;86.40;;;;;;10278128;28;20294;-81
2021/07/12 15:53:54;;;;;;;3.13;2.77;;;26.60;85.80;;;;;;10277527;28;20208;-81
2021/07/12 15:58:56;;;;;;;3.07;2.77;;;26.70;86.10;;;;;;10302705;28;20231;-80
2021/07/12 16:03:59;;;;;;;3.40;3.20;;;26.70;86.80;;;;;;10306743;28;20192;-81
2021/07/12 16:09:03;;;;;;;3.13;2.93;;;26.60;90.20;;;;;;10282174;28;20220;-80
2021/07/12 16:14:05;;;;;;;2.90;2.70;;;26.50;85.70;;;;;;10279678;28;20235;-80
2021/07/12 16:19:07;;;;;;;3.00;2.70;;;26.50;83.90;;;;;;10279264;28;20304;-80
2021/07/12 16:24:11;;;;;;;4.23;2.80;;;26.40;83.60;;;;;;10296597;28;20665;-81
2021/07/12 16:29:13;;;;;;;2.97;2.77;;;26.40;84.60;;;;;;10263694;28;20247;-82
2021/07/12 16:34:15;;;;;;;2.87;2.67;;;26.40;90.00;;;;;;10282393;28;20204;-81
2021/07/12 16:39:19;;;;;;;3.63;2.30;;;26.30;87.30;;;;;;10263726;28;20216;-81
2021/07/12 16:44:21;;;;;;;2.67;2.57;;;26.30;90.40;;;;;;10278764;28;20200;-82
2021/07/12 16:49:23;;;;;;;2.93;2.73;;;26.30;90.60;;;;;;10278697;28;20227;-84
2021/07/12 16:54:27;;;;;;;2.50;2.40;;;26.20;91.60;;;;;;10285157;28;20203;-84
2021/07/12 16:59:29;;;;;;;3.03;2.83;;;26.20;89.00;;;;;;10303395;28;20196;-83
2021/07/12 17:04:31;;;;;;;2.83;2.63;;;26.10;91.00;;;;;;10291172;28;20668;-84
2021/07/12 17:09:35;;;;;;;2.00;1.90;;;26.00;91.60;;;;;;10269519;28;20444;-84
2021/07/12 17:14:38;;;;;;;5.03;2.87;;;26.00;92.00;;;;;;10284434;28;20200;-84
2021/07/12 17:19:40;;;;;;;2.73;2.60;;;26.00;91.80;;;;;;10269817;28;20196;-83
2021/07/12 17:24:43;;;;;;;3.27;3.07;;;26.00;91.80;;;;;;10306089;28;20373;-83
2021/07/12 17:29:46;;;;;;;2.40;2.20;;;26.00;91.90;;;;;;10286956;28;20232;-84
2021/07/12 17:34:50;;;;;;;4.13;2.90;;;26.10;92.80;;;;;;10303797;28;20208;-84
2021/07/12 17:39:53;;;;;;;7.63;4.63;;;26.00;92.60;;;;;;10270983;28;20200;-84
2021/07/12 17:44:58;;;;;;;3.40;3.17;;;25.90;93.20;;;;;;10270582;28;20632;-85
2021/07/12 17:50:02;;;;;;;2.90;2.70;;;25.80;92.80;;;;;;10308115;28;20227;-83
2021/07/12 17:55:07;;;;;;;3.40;3.20;;;25.80;92.50;;;;;;10283941;28;20275;-83
2021/07/12 18:00:10;;;;;;;3.03;2.70;;;25.70;92.70;;;;;;10305130;28;20583;-85
2021/07/12 18:05:15;;;;;;;6.13;3.50;;;25.60;93.30;;;;;;10304440;28;20227;-84
2021/07/12 18:10:19;;;;;;;3.70;3.10;;;25.60;93.10;;;;;;10287498;28;20622;-84
2021/07/12 18:15:21;;;;;;;3.20;2.90;;;25.50;93.80;;;;;;10304430;28;20571;-84
2021/07/12 18:20:23;;;;;;;3.60;3.07;;;25.50;93.70;;;;;;10303518;28;20204;-84
2021/07/12 18:25:27;;;;;;;3.10;2.90;;;25.40;93.70;;;;;;10286397;28;20224;-84
2021/07/12 18:30:29;;;;;;;3.30;3.03;;;25.40;93.90;;;;;;10269941;28;20688;-84
2021/07/12 18:35:31;;;;;;;2.67;2.57;;;25.40;94.70;;;;;;10302938;28;20224;-84
2021/07/12 18:40:34;;;;;;;2.73;2.60;;;25.30;93.90;;;;;;10269721;28;20688;-84
2021/07/12 18:45:37;;;;;;;2.80;2.60;;;25.30;94.00;;;;;;10269861;28;20267;-85
2021/07/12 18:50:40;;;;;;;5.00;2.67;;;25.20;94.40;;;;;;10289805;28;20223;-82
2021/07/12 18:55:43;;;;;;;4.13;2.53;;;25.10;94.70;;;;;;10277288;28;20487;-83
2021/07/12 19:00:46;;;;;;;3.80;3.10;;;25.00;94.90;;;;;;10283727;28;20199;-83
2021/07/12 19:05:48;;;;;;;2.80;2.70;;;24.80;95.30;;;;;;10266163;28;20263;-85
2021/07/12 19:10:52;;;;;;;3.00;2.53;;;24.70;95.20;;;;;;10281969;28;20745;-85
2021/07/12 19:15:55;;;;;;;5.63;3.10;;;24.60;95.20;;;;;;10300493;28;20219;-83
2021/07/12 19:21:00;;;;;;;3.57;3.00;;;24.40;95.70;;;;;;10282078;28;20219;-84
2021/07/12 19:26:05;;;;;;;3.07;2.87;;;24.40;95.60;;;;;;10297828;28;20220;-85
2021/07/12 19:31:08;;;;;;;3.40;2.77;;;24.30;95.50;;;;;;10284789;28;20227;-82
2021/07/12 19:36:10;;;;;;;3.27;3.00;;;24.20;96.20;;;;;;10301618;28;20211;-84
2021/07/12 19:41:14;;;;;;;3.70;3.40;;;24.20;95.50;;;;;;10265718;28;20242;-85
2021/07/12 19:46:16;;;;;;;3.07;2.87;;;24.10;96.00;;;;;;10298762;28;20216;-84
2021/07/12 19:51:19;;;;;;;3.17;2.97;;;24.00;96.10;;;;;;10280929;28;20247;-85
2021/07/12 19:56:23;;;;;;;3.00;2.80;;;24.00;95.80;;;;;;10281656;28;20274;-84
2021/07/12 20:01:25;;;;;;;3.20;2.80;;;24.00;96.50;;;;;;10298688;28;20204;-84
2021/07/12 20:06:29;;;;;;;2.87;2.67;;;23.90;96.60;;;;;;10283875;28;20224;-84
2021/07/12 20:11:32;;;;;;;3.33;2.73;;;23.90;96.70;;;;;;10282110;28;20223;-85
2021/07/12 20:16:34;;;;;;;3.20;3.00;;;23.80;96.70;;;;;;10278692;28;20780;-85
2021/07/12 20:21:36;;;;;;;2.97;2.73;;;23.80;96.80;;;;;;10298771;28;20200;-85
2021/07/12 20:26:40;;;;;;;3.30;3.00;;;23.70;96.40;;;;;;10281149;28;20291;-85
2021/07/12 20:31:43;;;;;;;3.90;2.87;;;23.70;97.10;;;;;;10281661;28;20228;-84
2021/07/12 20:36:45;;;;;;;3.37;3.07;;;23.70;97.00;;;;;;10281178;28;20275;-85
2021/07/12 20:41:48;;;;;;;3.23;3.03;;;23.60;97.10;;;;;;10266055;28;20208;-85
2021/07/12 20:46:51;;;;;;;2.90;2.70;;;23.60;96.70;;;;;;10296757;28;20316;-85
2021/07/12 20:51:53;;;;;;;3.17;2.87;;;23.60;96.80;;;;;;10301437;28;20251;-85
2021/07/12 20:56:57;;;;;;;3.80;3.50;;;23.60;97.50;;;;;;10282333;28;20223;-85
2021/07/12 21:01:59;;;;;;;4.03;3.60;;;23.60;97.20;;;;;;10260223;28;20721;-85
2021/07/12 21:07:02;;;;;;;3.80;3.27;;;23.60;97.00;;;;;;10344145;28;20287;-85
2021/07/12 21:12:06;;;;;;;3.40;3.20;;;23.60;97.10;;;;;;10315491;28;20290;-85
2021/07/12 21:17:08;;;;;;;4.70;4.17;;;23.60;97.50;;;;;;10335194;28;20226;-85
2021/07/12 21:22:11;;;;;;;5.63;3.83;;;23.60;97.70;;;;;;10327948;28;20258;-85
2021/07/12 21:27:16;;;;;;;4.37;4.00;;;23.50;97.70;;;;;;10341874;28;20243;-85
2021/07/12 21:32:18;;;;;;;4.27;3.87;;;23.40;97.70;;;;;;10325039;28;20254;-85
2021/07/12 21:37:20;;;;;;;4.90;4.50;;;23.40;97.80;;;;;;10323210;28;20270;-85
2021/07/12 21:42:23;;;;;;;4.23;3.90;;;23.30;98.00;;;;;;10322757;28;20253;-85
2021/07/12 21:47:25;;;;;;;4.70;4.13;;;23.20;98.60;;;;;;10341341;28;20224;-86
2021/07/12 21:52:28;;;;;;;6.07;4.17;;;23.10;98.70;;;;;;10321227;28;20302;-85
2021/07/12 21:57:31;;;;;;;5.80;4.83;;;23.10;98.90;;;;;;10284046;28;20257;-85
2021/07/12 22:02:34;;;;;;;4.73;4.30;;;23.10;99.50;;;;;;10269708;28;20204;-83
2021/07/12 22:07:36;;;;;;;4.10;3.80;;;23.10;99.50;;;;;;10285885;28;20230;-83
2021/07/12 22:12:40;;;;;;;4.13;3.80;;;23.10;99.60;;;;;;10286373;28;20270;-83
2021/07/12 22:17:45;;;;;;;3.60;3.30;;;23.10;99.90;;;;;;10269177;28;20223;-83
2021/07/12 22:22:48;;;;;;;5.17;4.77;;;23.10;99.90;;;;;;10301804;28;20212;-83
2021/07/12 22:27:54;;;;;;;3.70;3.50;;;23.10;99.90;;;;;;10284441;28;20239;-83
2021/07/12 22:32:59;;;;;;;3.67;3.47;;;23.10;99.90;;;;;;10283084;28;20240;-83
2021/07/12 22:38:01;;;;;;;4.63;3.90;;;23.10;99.90;;;;;;10318270;28;20218;-83
2021/07/12 22:43:06;;;;;;;5.83;4.80;;;23.00;99.90;;;;;;10281237;28;20634;-83
2021/07/12 22:48:13;;;;;;;3.50;3.30;;;23.00;99.90;;;;;;10264640;28;20672;-83
2021/07/12 22:53:19;;;;;;;3.90;3.57;;;23.00;99.90;;;;;;10327814;28;20235;-83
2021/07/12 22:58:23;;;;;;;4.10;3.70;;;23.00;99.90;;;;;;10338416;28;20289;-83
2021/07/12 23:03:25;;;;;;;4.63;4.30;;;22.90;99.90;;;;;;10325081;28;20207;-83
2021/07/12 23:08:28;;;;;;;3.97;3.60;;;22.90;99.90;;;;;;10335721;28;20298;-83
2021/07/12 23:13:31;;;;;;;3.83;3.53;;;22.90;99.90;;;;;;10278688;28;20249;-83
2021/07/12 23:18:34;;;;;;;3.60;3.27;;;22.80;99.90;;;;;;10296999;28;20220;-83
2021/07/12 23:23:36;;;;;;;2.87;2.67;;;22.80;99.90;;;;;;10280897;28;20212;-82
2021/07/12 23:28:39;;;;;;;2.87;2.67;;;22.70;99.90;;;;;;10298132;28;20243;-83
2021/07/12 23:33:41;;;;;;;2.80;2.60;;;22.60;99.90;;;;;;10296109;28;20223;-82
2021/07/12 23:38:43;;;;;;;3.10;2.80;;;22.60;99.90;;;;;;10281266;28;20219;-83
2021/07/12 23:43:47;;;;;;;3.30;2.50;;;22.50;99.90;;;;;;10282479;28;20533;-83
2021/07/12 23:48:49;;;;;;;2.03;1.73;;;22.50;99.90;;;;;;10298600;28;20240;-83
2021/07/12 23:53:51;;;;;;;2.20;2.00;;;22.40;99.90;;;;;;10314239;28;20262;-83
2021/07/12 23:58:54;;;;;;;2.97;2.70;;;22.40;99.90;;;;;;10339767;28;20242;-81
